createdAt,value
2022-10-23T00:01:30.705Z,101516.16
2022-10-23T00:04:00.476Z,101519.53
2022-10-23T00:06:28.770Z,101534.13
2022-10-23T00:08:56.330Z,101524.44
2022-10-23T00:11:26.894Z,101522.06
2022-10-23T00:13:55.719Z,101517.81
2022-10-23T00:16:22.744Z,101519.88
2022-10-23T00:18:49.375Z,101523.28
2022-10-23T00:21:17.484Z,101525.69
2022-10-23T00:23:45.467Z,101525.56
2022-10-23T00:26:16.251Z,101532.53
2022-10-23T00:28:49.476Z,101527.78
2022-10-23T00:31:16.224Z,101518.66
2022-10-23T00:33:43.096Z,101523.09
2022-10-23T00:36:12.899Z,101521.94
2022-10-23T00:38:40.208Z,101518.91
2022-10-23T00:41:08.630Z,101515.84
2022-10-23T00:43:54.123Z,101502.91
2022-10-23T00:46:20.695Z,101514.66
2022-10-23T00:48:47.205Z,101513.78
2022-10-23T00:51:13.725Z,101505.44
2022-10-23T00:53:40.261Z,101495.94
2022-10-23T00:56:06.988Z,101504.78
2022-10-23T00:58:33.498Z,101499.88
2022-10-23T01:01:00.018Z,101501.34
2022-10-23T01:03:29.021Z,101501.84
2022-10-23T01:06:16.578Z,101508.59
2022-10-23T01:08:52.442Z,101510.28
2022-10-23T01:11:26.395Z,101513.19
2022-10-23T01:14:08.071Z,101515.22
2022-10-23T01:16:41.806Z,101515.75
2022-10-23T01:19:21.771Z,101518.31
2022-10-23T01:22:07.377Z,101524.13
2022-10-23T01:24:48.859Z,101524.16
2022-10-23T01:27:24.270Z,101503.41
2022-10-23T01:30:03.303Z,101512.94
2022-10-23T01:32:51.029Z,101515.31
2022-10-23T01:35:22.733Z,101511.41
2022-10-23T01:37:58.112Z,101507.66
2022-10-23T01:40:36.543Z,101496.75
2022-10-23T01:43:13.332Z,101487.06
2022-10-23T01:45:48.971Z,101495.88
2022-10-23T01:48:19.114Z,101494.69
2022-10-23T01:50:47.029Z,101502.66
2022-10-23T01:53:13.617Z,101487.38
2022-10-23T01:58:16.091Z,101465.63
2022-10-23T02:00:45.564Z,101495.50
2022-10-23T02:03:15.278Z,101490.41
2022-10-23T02:05:43.618Z,101492.78
2022-10-23T02:08:10.575Z,101473.59
2022-10-23T02:11:01.911Z,101473.75
2022-10-23T02:13:53.921Z,101477.69
2022-10-23T02:16:31.999Z,101470.56
2022-10-23T02:19:17.765Z,101473.44
2022-10-23T02:22:02.109Z,101461.56
2022-10-23T02:24:36.433Z,101487.41
2022-10-23T02:27:08.062Z,101473.16
2022-10-23T02:29:40.000Z,101486.75
2022-10-23T02:32:10.163Z,101479.28
2022-10-23T02:34:36.717Z,101481.63
2022-10-23T02:37:03.695Z,101486.41
2022-10-23T02:39:30.417Z,101483.38
2022-10-23T02:42:22.018Z,101473.16
2022-10-23T02:44:59.829Z,101476.06
2022-10-23T02:47:55.281Z,101483.38
2022-10-23T02:50:26.794Z,101489.81
2022-10-23T02:52:59.001Z,101485.44
2022-10-23T02:55:36.695Z,101480.28
2022-10-23T02:58:09.230Z,101468.72
2022-10-23T03:00:39.354Z,101481.31
2022-10-23T03:03:14.944Z,101481.66
2022-10-23T03:05:42.115Z,101478.63
2022-10-23T03:08:10.246Z,101473.69
2022-10-23T03:10:37.303Z,101479.97
2022-10-23T03:13:04.155Z,101479.50
2022-10-23T03:15:30.852Z,101483.03
2022-10-23T03:17:57.382Z,101481.69
2022-10-23T03:20:24.256Z,101462.84
2022-10-23T03:22:50.771Z,101457.75
2022-10-23T03:25:17.403Z,101488.19
2022-10-23T03:27:43.966Z,101483.41
2022-10-23T03:30:10.994Z,101482.19
2022-10-23T03:32:37.541Z,101488.50
2022-10-23T03:35:04.539Z,101495.47
2022-10-23T03:37:31.057Z,101482.56
2022-10-23T03:39:57.606Z,101490.22
2022-10-23T03:42:24.131Z,101499.03
2022-10-23T03:44:50.681Z,101472.03
2022-10-23T03:47:17.332Z,101489.34
2022-10-23T03:49:43.848Z,101465.75
2022-10-23T03:52:10.491Z,101460.66
2022-10-23T03:54:37.002Z,101474.91
2022-10-23T03:57:03.624Z,101484.25
2022-10-23T03:59:30.234Z,101479.50
2022-10-23T04:01:56.967Z,101489.19
2022-10-23T04:04:23.603Z,101480.56
2022-10-23T04:06:50.133Z,101501.81
2022-10-23T04:09:16.923Z,101492.44
2022-10-23T04:11:43.490Z,101490.59
2022-10-23T04:14:13.317Z,101488.53
2022-10-23T04:16:40.524Z,101499.91
2022-10-23T04:19:07.098Z,101496.38
2022-10-23T04:21:33.802Z,101483.47
2022-10-23T04:24:00.327Z,101495.31
2022-10-23T04:26:26.845Z,101486.19
2022-10-23T04:28:53.367Z,101492.97
2022-10-23T04:31:20.042Z,101494.34
2022-10-23T04:33:47.402Z,101501.13
2022-10-23T04:36:14.013Z,101510.97
2022-10-23T04:38:40.610Z,101508.25
2022-10-23T04:41:07.189Z,101509.97
2022-10-23T04:43:33.824Z,101509.13
2022-10-23T04:46:00.704Z,101525.94
2022-10-23T04:48:29.129Z,101507.44
2022-10-23T04:50:59.645Z,101531.03
2022-10-23T04:53:27.414Z,101524.25
2022-10-23T04:55:55.984Z,101500.81
2022-10-23T04:58:24.035Z,101509.31
2022-10-23T05:00:51.416Z,101513.41
2022-10-23T05:03:18.902Z,101494.38
2022-10-23T05:05:45.871Z,101484.50
2022-10-23T05:08:15.636Z,101497.78
2022-10-23T05:10:44.614Z,101484.00
2022-10-23T05:13:11.102Z,101500.63
2022-10-23T05:15:37.714Z,101475.69
2022-10-23T05:18:16.221Z,101493.84
2022-10-23T05:20:45.256Z,101487.72
2022-10-23T05:23:15.019Z,101486.88
2022-10-23T05:25:41.573Z,101487.91
2022-10-23T05:28:08.087Z,101498.28
2022-10-23T05:30:34.849Z,101500.63
2022-10-23T05:33:03.046Z,101499.78
2022-10-23T05:35:30.244Z,101483.78
2022-10-23T05:37:58.932Z,101507.91
2022-10-23T05:40:25.804Z,101511.63
2022-10-23T05:42:52.435Z,101501.44
2022-10-23T05:45:19.054Z,101507.72
2022-10-23T05:47:46.668Z,101498.34
2022-10-23T05:50:13.341Z,101508.91
2022-10-23T05:52:40.372Z,101507.38
2022-10-23T05:55:08.898Z,101510.25
2022-10-23T05:57:35.455Z,101524.84
2022-10-23T06:00:02.391Z,101521.78
2022-10-23T06:02:29.127Z,101532.16
2022-10-23T06:04:55.814Z,101517.34
2022-10-23T06:07:29.175Z,101537.22
2022-10-23T06:09:57.815Z,101529.56
2022-10-23T06:12:24.498Z,101532.47
2022-10-23T06:14:51.960Z,101527.88
2022-10-23T06:17:18.698Z,101526.84
2022-10-23T06:19:46.190Z,101544.38
2022-10-23T06:22:12.792Z,101543.69
2022-10-23T06:24:39.340Z,101552.84
2022-10-23T06:27:06.041Z,101556.97
2022-10-23T06:29:32.669Z,101532.88
2022-10-23T06:31:59.171Z,101568.75
2022-10-23T06:34:25.738Z,101552.13
2022-10-23T06:36:52.484Z,101560.28
2022-10-23T06:39:20.904Z,101543.13
2022-10-23T06:41:47.462Z,101551.94
2022-10-23T06:44:14.116Z,101559.91
2022-10-23T06:46:40.769Z,101547.69
2022-10-23T06:49:07.288Z,101576.38
2022-10-23T06:51:33.897Z,101561.78
2022-10-23T06:54:00.463Z,101550.72
2022-10-23T06:56:29.240Z,101561.78
2022-10-23T06:58:56.592Z,101556.94
2022-10-23T07:01:23.300Z,101566.81
2022-10-23T07:03:49.918Z,101570.38
2022-10-23T07:06:16.430Z,101578.25
2022-10-23T07:08:43.160Z,101568.91
2022-10-23T07:11:11.357Z,101564.97
2022-10-23T07:13:39.351Z,101590.72
2022-10-23T07:16:15.017Z,101583.69
2022-10-23T07:18:41.882Z,101595.84
2022-10-23T07:21:08.788Z,101598.22
2022-10-23T07:23:35.641Z,101596.63
2022-10-23T07:26:05.239Z,101595.59
2022-10-23T07:28:31.881Z,101590.50
2022-10-23T07:30:59.545Z,101593.81
2022-10-23T07:33:26.181Z,101600.16
2022-10-23T07:35:53.118Z,101602.94
2022-10-23T07:38:19.739Z,101607.16
2022-10-23T07:40:46.395Z,101604.69
2022-10-23T07:43:12.948Z,101612.34
2022-10-23T07:45:39.670Z,101604.69
2022-10-23T07:48:06.273Z,101622.31
2022-10-23T07:50:32.807Z,101620.63
2022-10-23T07:52:59.311Z,101634.59
2022-10-23T07:55:25.910Z,101613.50
2022-10-23T07:57:52.425Z,101629.84
2022-10-23T08:00:19.107Z,101637.09
2022-10-23T08:02:45.750Z,101636.41
2022-10-23T08:05:12.294Z,101624.94
2022-10-23T08:07:38.934Z,101639.13
2022-10-23T08:10:06.140Z,101648.28
2022-10-23T08:12:32.627Z,101639.00
2022-10-23T08:14:59.231Z,101643.72
2022-10-23T08:17:28.193Z,101639.72
2022-10-23T08:19:55.001Z,101632.69
2022-10-23T08:22:21.600Z,101651.25
2022-10-23T08:24:48.106Z,101644.91
2022-10-23T08:27:14.634Z,101635.72
2022-10-23T08:29:41.207Z,101643.72
2022-10-23T08:32:07.812Z,101639.84
2022-10-23T08:34:34.408Z,101641.25
2022-10-23T08:37:00.952Z,101642.06
2022-10-23T08:39:27.459Z,101652.19
2022-10-23T08:41:54.605Z,101656.16
2022-10-23T08:44:47.314Z,101649.03
2022-10-23T08:47:19.891Z,101654.50
2022-10-23T08:49:56.684Z,101644.47
2022-10-23T08:52:29.832Z,101638.72
2022-10-23T08:55:22.059Z,101641.28
2022-10-23T08:58:17.253Z,101649.75
2022-10-23T09:00:45.134Z,101662.00
2022-10-23T09:03:13.421Z,101645.13
2022-10-23T09:06:01.864Z,101627.88
2022-10-23T09:08:51.387Z,101645.44
2022-10-23T09:11:26.530Z,101649.63
2022-10-23T09:13:59.100Z,101645.84
2022-10-23T09:16:49.856Z,101623.38
2022-10-23T09:19:19.794Z,101642.28
2022-10-23T09:21:49.937Z,101636.06
2022-10-23T09:24:19.480Z,101628.81
2022-10-23T09:26:49.594Z,101631.75
2022-10-23T09:29:30.180Z,101629.44
2022-10-23T09:31:59.060Z,101634.09
2022-10-23T09:34:30.152Z,101631.84
2022-10-23T09:36:59.891Z,101641.63
2022-10-23T09:39:34.631Z,101639.84
2022-10-23T09:42:04.988Z,101632.78
2022-10-23T09:44:33.585Z,101626.16
2022-10-23T09:47:12.036Z,101642.66
2022-10-23T09:49:46.352Z,101640.44
2022-10-23T09:52:12.999Z,101634.22
2022-10-23T09:54:45.515Z,101644.66
2022-10-23T09:57:18.007Z,101648.53
2022-10-23T09:59:44.841Z,101642.75
2022-10-23T10:02:28.611Z,101643.78
2022-10-23T10:04:55.182Z,101639.31
2022-10-23T10:07:24.518Z,101649.41
2022-10-23T10:09:53.307Z,101657.44
2022-10-23T10:12:39.403Z,101642.69
2022-10-23T10:15:21.929Z,101649.19
2022-10-23T10:18:07.279Z,101651.22
2022-10-23T10:21:04.675Z,101648.09
2022-10-23T10:23:45.810Z,101657.81
2022-10-23T10:26:31.282Z,101652.91
2022-10-23T10:29:13.068Z,101652.97
2022-10-23T10:32:03.609Z,101656.28
2022-10-23T10:34:39.141Z,101655.34
2022-10-23T10:37:29.446Z,101655.41
2022-10-23T10:40:10.024Z,101635.94
2022-10-23T10:43:01.586Z,101645.16
2022-10-23T10:45:41.754Z,101636.34
2022-10-23T10:48:37.354Z,101631.22
2022-10-23T10:51:11.289Z,101629.38
2022-10-23T10:54:22.452Z,101626.88
2022-10-23T10:56:49.130Z,101625.78
2022-10-23T10:59:31.979Z,101621.22
2022-10-23T11:02:25.261Z,101619.47
2022-10-23T11:07:29.481Z,101614.44
2022-10-23T11:09:58.973Z,101611.91
2022-10-23T11:12:27.994Z,101614.66
2022-10-23T11:14:57.419Z,101613.41
2022-10-23T11:17:28.904Z,101607.72
2022-10-23T11:20:05.438Z,101619.31
2022-10-23T11:22:51.439Z,101613.88
2022-10-23T11:25:47.119Z,101606.13
2022-10-23T11:28:25.957Z,101599.13
2022-10-23T11:31:06.151Z,101586.69
2022-10-23T11:34:03.201Z,101583.75
2022-10-23T11:36:56.505Z,101587.63
2022-10-23T11:39:36.921Z,101573.34
2022-10-23T11:42:06.241Z,101575.50
2022-10-23T11:45:25.374Z,101573.19
2022-10-23T11:48:02.982Z,101568.63
2022-10-23T11:50:44.841Z,101572.53
2022-10-23T11:53:33.183Z,101576.53
2022-10-23T11:56:11.933Z,101562.53
2022-10-23T11:58:47.606Z,101565.28
2022-10-23T12:01:24.300Z,101571.00
2022-10-23T12:04:12.635Z,101575.00
2022-10-23T12:06:51.231Z,101564.81
2022-10-23T12:09:54.353Z,101558.91
2022-10-23T12:12:40.619Z,101554.53
2022-10-23T12:15:16.295Z,101558.44
2022-10-23T12:17:44.238Z,101553.94
2022-10-23T12:20:11.180Z,101551.94
2022-10-23T12:23:00.782Z,101554.16
2022-10-23T12:25:46.313Z,101555.59
2022-10-23T12:28:58.328Z,101552.75
2022-10-23T12:32:04.175Z,101549.88
2022-10-23T12:34:42.196Z,101550.75
2022-10-23T12:37:08.702Z,101542.47
2022-10-23T12:39:39.067Z,101543.97
2022-10-23T12:42:27.116Z,101525.63
2022-10-23T12:45:05.846Z,101525.72
2022-10-23T12:47:32.824Z,101519.19
2022-10-23T12:49:59.383Z,101523.19
2022-10-23T12:52:26.015Z,101524.97
2022-10-23T12:54:52.613Z,101514.19
2022-10-23T12:57:30.271Z,101512.91
2022-10-23T13:00:06.134Z,101497.09
2022-10-23T13:02:36.256Z,101499.84
2022-10-23T13:05:07.527Z,101495.25
2022-10-23T13:07:37.872Z,101507.16
2022-10-23T13:10:05.599Z,101501.25
2022-10-23T13:12:38.641Z,101498.94
2022-10-23T13:15:08.503Z,101498.56
2022-10-23T13:17:36.533Z,101484.97
2022-10-23T13:20:31.257Z,101479.28
2022-10-23T13:23:08.046Z,101482.44
2022-10-23T13:25:37.062Z,101475.78
2022-10-23T13:28:25.438Z,101475.25
2022-10-23T13:31:05.261Z,101475.25
2022-10-23T13:33:38.059Z,101477.38
2022-10-23T13:36:13.844Z,101482.00
2022-10-23T13:39:02.361Z,101480.28
2022-10-23T13:41:36.360Z,101479.25
2022-10-23T13:44:03.068Z,101482.63
2022-10-23T13:46:29.828Z,101473.28
2022-10-23T13:48:56.421Z,101479.47
2022-10-23T13:51:29.251Z,101480.28
2022-10-23T13:53:57.353Z,101480.66
2022-10-23T13:56:26.303Z,101485.75
2022-10-23T13:58:53.569Z,101469.66
2022-10-23T14:01:33.476Z,101471.53
2022-10-23T14:04:00.279Z,101482.59
2022-10-23T14:06:26.831Z,101469.25
2022-10-23T14:08:53.321Z,101487.22
2022-10-23T14:11:21.058Z,101487.41
2022-10-23T14:13:48.623Z,101476.84
2022-10-23T14:16:18.085Z,101479.25
2022-10-23T14:18:44.913Z,101469.72
2022-10-23T14:21:13.541Z,101470.09
2022-10-23T14:23:40.365Z,101477.72
2022-10-23T14:26:13.332Z,101482.41
2022-10-23T14:28:39.992Z,101483.47
2022-10-23T14:31:11.824Z,101485.84
2022-10-23T14:33:39.077Z,101483.72
2022-10-23T14:36:06.156Z,101480.97
2022-10-23T14:38:32.748Z,101477.59
2022-10-23T14:40:59.719Z,101478.22
2022-10-23T14:43:27.034Z,101475.72
2022-10-23T14:45:53.724Z,101475.72
2022-10-23T14:48:20.216Z,101474.47
2022-10-23T14:50:49.334Z,101474.69
2022-10-23T14:53:16.260Z,101476.59
2022-10-23T14:55:42.782Z,101466.88
2022-10-23T14:58:09.377Z,101475.56
2022-10-23T15:00:36.228Z,101476.22
2022-10-23T15:03:02.836Z,101484.63
2022-10-23T15:05:29.398Z,101476.00
2022-10-23T15:07:56.767Z,101473.50
2022-10-23T15:10:23.286Z,101471.59
2022-10-23T15:12:49.975Z,101467.38
2022-10-23T15:15:16.696Z,101470.13
2022-10-23T15:17:43.802Z,101473.50
2022-10-23T15:20:10.766Z,101464.63
2022-10-23T15:22:37.286Z,101458.94
2022-10-23T15:25:04.106Z,101452.84
2022-10-23T15:27:30.584Z,101452.63
2022-10-23T15:29:57.143Z,101469.72
2022-10-23T15:32:23.782Z,101464.06
2022-10-23T15:34:52.099Z,101464.06
2022-10-23T15:37:18.636Z,101463.63
2022-10-23T15:39:45.253Z,101459.44
2022-10-23T15:42:11.844Z,101443.38
2022-10-23T15:44:40.265Z,101448.63
2022-10-23T15:47:06.871Z,101454.78
2022-10-23T15:49:33.541Z,101460.69
2022-10-23T15:52:00.475Z,101460.25
2022-10-23T15:54:30.462Z,101468.53
2022-10-23T15:56:59.399Z,101452.91
2022-10-23T15:59:26.620Z,101463.25
2022-10-23T16:01:53.263Z,101465.34
2022-10-23T16:04:20.032Z,101458.19
2022-10-23T16:06:46.796Z,101455.22
2022-10-23T16:09:14.230Z,101462.19
2022-10-23T16:11:42.527Z,101463.41
2022-10-23T16:14:14.178Z,101479.00
2022-10-23T16:16:41.144Z,101469.31
2022-10-23T16:19:07.882Z,101472.88
2022-10-23T16:21:36.281Z,101466.50
2022-10-23T16:24:04.604Z,101471.16
2022-10-23T16:26:31.821Z,101467.75
2022-10-23T16:29:01.705Z,101474.91
2022-10-23T16:31:29.837Z,101475.25
2022-10-23T16:34:01.435Z,101468.94
2022-10-23T16:36:28.630Z,101462.72
2022-10-23T16:38:55.735Z,101456.72
2022-10-23T16:41:22.362Z,101466.59
2022-10-23T16:43:48.954Z,101474.59
2022-10-23T16:46:21.067Z,101481.91
2022-10-23T16:48:49.036Z,101484.59
2022-10-23T16:51:21.829Z,101478.63
2022-10-23T16:53:48.862Z,101488.63
2022-10-23T16:56:18.649Z,101489.59
2022-10-23T16:58:45.741Z,101494.75
2022-10-23T17:01:21.000Z,101474.91
2022-10-23T17:03:49.653Z,101489.75
2022-10-23T17:06:18.320Z,101490.31
2022-10-23T17:08:45.597Z,101481.69
2022-10-23T17:11:17.784Z,101499.50
2022-10-23T17:13:58.497Z,101500.28
2022-10-23T17:16:35.076Z,101501.72
2022-10-23T17:19:02.223Z,101497.66
2022-10-23T17:21:33.681Z,101510.50
2022-10-23T17:24:00.356Z,101503.22
2022-10-23T17:26:27.744Z,101508.34
2022-10-23T17:28:55.094Z,101505.50
2022-10-23T17:31:24.664Z,101509.09
2022-10-23T17:33:54.349Z,101511.53
2022-10-23T17:36:21.878Z,101517.41
2022-10-23T17:38:48.737Z,101513.34
2022-10-23T17:41:18.341Z,101505.63
2022-10-23T17:43:45.099Z,101501.13
2022-10-23T17:46:13.434Z,101509.78
2022-10-23T17:48:43.372Z,101508.00
2022-10-23T17:51:18.773Z,101523.72
2022-10-23T17:53:47.628Z,101529.38
2022-10-23T17:56:19.859Z,101523.94
2022-10-23T17:58:46.799Z,101528.06
2022-10-23T18:01:16.279Z,101527.69
2022-10-23T18:03:43.360Z,101528.94
2022-10-23T18:06:16.141Z,101529.28
2022-10-23T18:08:43.915Z,101535.03
2022-10-23T18:11:20.703Z,101532.00
2022-10-23T18:13:47.882Z,101528.84
2022-10-23T18:16:15.006Z,101522.16
2022-10-23T18:18:43.272Z,101518.84
2022-10-23T18:21:10.456Z,101519.00
2022-10-23T18:23:37.642Z,101525.19
2022-10-23T18:26:05.334Z,101512.63
2022-10-23T18:28:32.559Z,101516.47
2022-10-23T18:30:59.103Z,101520.59
2022-10-23T18:33:26.509Z,101517.94
2022-10-23T18:35:53.691Z,101515.19
2022-10-23T18:38:20.225Z,101503.63
2022-10-23T18:40:54.556Z,101515.69
2022-10-23T18:43:42.037Z,101520.09
2022-10-23T18:46:07.865Z,101507.03
2022-10-23T18:48:35.348Z,101521.66
2022-10-23T18:51:01.926Z,101517.31
2022-10-23T18:53:29.058Z,101517.16
2022-10-23T18:55:55.962Z,101515.44
2022-10-23T18:58:22.747Z,101514.78
2022-10-23T19:00:49.771Z,101525.84
2022-10-23T19:03:16.517Z,101514.47
2022-10-23T19:05:47.020Z,101510.22
2022-10-23T19:08:13.829Z,101512.66
2022-10-23T19:10:43.968Z,101496.66
2022-10-23T19:13:10.541Z,101494.47
2022-10-23T19:15:37.868Z,101499.91
2022-10-23T19:18:08.185Z,101488.53
2022-10-23T19:20:35.521Z,101498.56
2022-10-23T19:23:04.818Z,101501.00
2022-10-23T19:25:34.459Z,101493.38
2022-10-23T19:28:03.213Z,101502.53
2022-10-23T19:30:30.202Z,101501.53
2022-10-23T19:32:56.738Z,101509.50
2022-10-23T19:35:23.344Z,101505.94
2022-10-23T19:37:49.923Z,101510.03
2022-10-23T19:40:16.731Z,101511.75
2022-10-23T19:42:44.376Z,101524.00
2022-10-23T19:45:16.244Z,101521.59
2022-10-23T19:47:43.504Z,101513.13
2022-10-23T19:50:11.574Z,101516.75
2022-10-23T19:52:38.488Z,101520.66
2022-10-23T19:55:06.390Z,101507.78
2022-10-23T19:57:37.374Z,101508.44
2022-10-23T20:00:06.951Z,101506.72
2022-10-23T20:05:08.713Z,101515.75
2022-10-23T20:07:37.116Z,101527.69
2022-10-23T20:10:08.351Z,101529.34
2022-10-23T20:12:34.934Z,101520.03
2022-10-23T20:15:01.521Z,101524.44
2022-10-23T20:17:28.341Z,101524.13
2022-10-23T20:19:54.974Z,101514.63
2022-10-23T20:22:21.593Z,101519.72
2022-10-23T20:24:48.317Z,101512.13
2022-10-23T20:27:15.537Z,101503.28
2022-10-23T20:29:42.738Z,101518.91
2022-10-23T20:32:09.740Z,101518.00
2022-10-23T20:34:36.384Z,101520.53
2022-10-23T20:37:02.959Z,101524.25
2022-10-23T20:39:29.986Z,101513.19
2022-10-23T20:41:56.990Z,101531.19
2022-10-23T20:44:24.930Z,101519.16
2022-10-23T20:46:52.900Z,101523.34
2022-10-23T20:49:20.018Z,101527.09
2022-10-23T20:51:55.212Z,101537.28
2022-10-23T20:54:28.880Z,101533.88
2022-10-23T20:56:57.143Z,101537.63
2022-10-23T20:59:23.798Z,101534.94
2022-10-23T21:01:53.272Z,101539.03
2022-10-23T21:04:22.882Z,101527.31
2022-10-23T21:07:10.868Z,101525.44
2022-10-23T21:09:38.975Z,101527.84
2022-10-23T21:12:06.852Z,101528.00
2022-10-23T21:14:33.908Z,101527.19
2022-10-23T21:17:00.602Z,101515.66
2022-10-23T21:19:27.204Z,101527.22
2022-10-23T21:21:54.927Z,101538.09
2022-10-23T21:24:21.631Z,101532.66
2022-10-23T21:26:48.434Z,101537.78
2022-10-23T21:29:19.721Z,101539.63
2022-10-23T21:32:01.678Z,101525.84
2022-10-23T21:34:29.216Z,101522.28
2022-10-23T21:39:46.493Z,101524.34
2022-10-23T21:42:14.161Z,101516.34
2022-10-23T21:44:41.309Z,101515.00
2022-10-23T21:47:07.864Z,101511.59
2022-10-23T21:49:34.508Z,101503.97
2022-10-23T21:52:01.426Z,101485.09
2022-10-23T21:54:27.959Z,101482.06
2022-10-23T21:56:55.010Z,101476.47
2022-10-23T21:59:27.744Z,101490.94
2022-10-23T22:01:57.059Z,101480.38
2022-10-23T22:04:23.703Z,101483.97
2022-10-23T22:06:50.297Z,101500.75
2022-10-23T22:09:19.648Z,101494.47
2022-10-23T22:11:47.977Z,101497.88
2022-10-23T22:14:14.569Z,101493.09
2022-10-23T22:16:42.332Z,101498.22
2022-10-23T22:19:12.182Z,101505.34
2022-10-23T22:21:39.154Z,101508.44
2022-10-23T22:24:06.817Z,101508.94
2022-10-23T22:26:39.684Z,101503.84
2022-10-23T22:29:16.072Z,101501.16
2022-10-23T22:31:45.678Z,101492.66
2022-10-23T22:34:40.812Z,101499.94
2022-10-23T22:37:10.751Z,101498.28
2022-10-23T22:39:38.050Z,101498.59
2022-10-23T22:42:04.814Z,101494.38
2022-10-23T22:44:31.326Z,101492.34
2022-10-23T22:46:59.079Z,101474.31
2022-10-23T22:49:25.629Z,101477.03
2022-10-23T22:51:52.280Z,101479.09
2022-10-23T22:54:19.021Z,101468.91
2022-10-23T22:56:45.536Z,101465.81
2022-10-23T22:59:12.089Z,101479.09
2022-10-23T23:01:42.679Z,101477.03
2022-10-23T23:04:19.777Z,101459.38
2022-10-23T23:06:57.618Z,101464.31
2022-10-23T23:09:24.152Z,101474.31
2022-10-23T23:11:52.595Z,101467.88
2022-10-23T23:14:23.010Z,101465.84
2022-10-23T23:16:51.191Z,101455.31
2022-10-23T23:19:18.018Z,101455.31
2022-10-23T23:21:44.605Z,101453.59
2022-10-23T23:24:11.872Z,101443.94
2022-10-23T23:26:38.579Z,101460.25
2022-10-23T23:29:05.133Z,101469.22
2022-10-23T23:31:31.662Z,101469.91
2022-10-23T23:33:59.277Z,101478.56
2022-10-23T23:36:27.646Z,101470.75
2022-10-23T23:38:56.614Z,101467.03
2022-10-23T23:41:23.895Z,101463.78
2022-10-23T23:43:50.681Z,101460.06
2022-10-23T23:46:18.023Z,101452.59
2022-10-23T23:48:48.298Z,101459.72
2022-10-23T23:51:20.338Z,101460.56
2022-10-23T23:53:48.092Z,101461.06
2022-10-23T23:56:14.995Z,101448.53
2022-10-23T23:58:41.832Z,101448.31
